KSBM/SBM METAR and TAF weather

Enter ICAO airport designator
Station Type Date Time Source
KSBM METAR 2024/04/23 04:53 UTC NOAA

KSBM 230453Z AUTO 20014KT 10SM OVC080 11/04 A2973 RMK AO2 RAE03 SLP066 P0000 T01110044


Station Type Date Time Source
KSBM Decoded METAR 2024/04/23 04:53 UTC NOAA

SHEBOYGAN CO MEMORIAL AIRPORT , WI, United States (KSBM) 43-47N 87-51W 232M
Apr 23, 2024 - 12:53 AM EDT / 2024.04.23 0453 UTC
Wind: from the SSW (200 degrees) at 16 MPH (14 KT):0
Visibility: 10 mile(s):0
Sky conditions: overcast
Precipitation last hour: A trace
Temperature: 52.0 F (11.1 C)
Dew Point: 39.9 F (4.4 C)
Relative Humidity: 63%
Pressure (altimeter): 29.73 in. Hg (1006 hPa)
ob: KSBM 230453Z AUTO 20014KT 10SM OVC080 11/04 A2973 RMK AO2 RAE03 SLP066 P0000 T01110044
cycle: 5

Station Type Date Time Source
KSBM TAF 2024/04/23 06:36 UTC NOAA